• Join FlightAware (Why Join?)
  • Login
  • US Flag 
03:57PM EDT


 

Airport Tracker/Info


-or-


 

Live Flight TrackerFlight Track Log ✈ UAL363 ✈ 01-May-2013 ✈ KDEN - KBOS

Flight Track Log - Related Links

Times and Time Zones

All times are in EDT time to prevent confusion due to time zone crossing. See the UAL363 flight status page for this flight to view local times or setup timezone preferences in your user account.

Time Position Orientation Groundspeed Altitude Reporting Facility
EDT Latitude Longitude Course Direction KTS MPH feet Rate Location/Type
01:19PM 39.9500 -104.7000 37° Northeast 224 258 8,100  Level Denver TRACON
01:20PM 40.0000 -104.6500 37° Northeast 267 307 9,900 1,920 Climbing Denver TRACON
01:21PM 40.0601 -104.3767 323° Northwest  Level FlightAware Approximate
01:21PM 40.0392 -104.6006 44° Northeast 278 320 11,300  Level Denver Center
01:21PM 40.0667 -104.5833 26° Northeast 307 353 11,700 1,260 Climbing Denver TRACON
01:22PM 40.1589 -104.4755 323° Northwest  Level FlightAware Approximate
01:22PM 40.1500 -104.5167 31° Northeast 373 429 13,100  Level Denver TRACON
01:23PM 40.2769 -104.5000 North  Level FlightAware Approximate
01:23PM 40.2219 -104.4747 24° Northeast 385 443 14,600  Level Denver Center
01:24PM 40.3736 -104.4098 37° Northeast  Level FlightAware Approximate
01:24PM 40.3208 -104.4067 28° Northeast 403 464 16,500  Level Denver Center
01:25PM 40.4300 -104.3372 26° Northeast 433 498 18,100 1,740 Climbing Denver Center
01:26PM 40.5464 -104.2553 28° Northeast 440 506 20,200 1,800 Climbing Denver Center
01:27PM 40.6481 -104.1497 38° Northeast 462 532 21,900 1,500 Climbing Denver Center
01:28PM 40.7533 -104.0142 44° Northeast 480 552 23,300 1,500 Climbing Denver Center
01:29PM 40.8567 -103.8822 44° Northeast 510 587 25,100 1,560 Climbing Denver Center
01:30PM 40.9622 -103.7450 44° Northeast 525 604 26,600 1,380 Climbing Denver Center
01:31PM 41.0722 -103.6017 44° Northeast 533 613 28,000 1,200 Climbing Denver Center
01:32PM 41.1719 -103.4619 47° Northeast 544 626 29,100 1,260 Climbing Denver Center
01:33PM 41.2322 -103.2511 69° East 551 634 30,700 1,440 Climbing Denver Center
01:34PM 41.2603 -103.0639 79° East 542 624 32,100 1,080 Climbing Denver Center
01:35PM 41.2928 -102.8489 79° East 534 615 33,000 420 Climbing Denver Center
01:36PM 41.3214 -102.6656 78° East 529 609 33,000  Level Denver Center
01:37PM 41.3494 -102.4700 79° East 524 603 33,000  Level Denver Center
01:38PM 41.3808 -102.2567 79° East 526 605 33,000  Level Denver Center
01:39PM 41.4108 -102.0708 78° East 533 613 33,000  Level Denver Center
01:40PM 41.4483 -101.8567 77° East 531 611 33,000  Level Denver Center
01:41PM 41.4803 -101.6692 77° East 539 620 33,000  Level Denver Center
01:42PM 41.5128 -101.4819 77° East 540 621 33,000  Level Denver Center
01:43PM 41.5483 -101.2650 78° East 536 617 33,000  Level Denver Center
01:44PM 41.5783 -101.0803 78° East 530 610 33,000  Level Denver Center
01:45PM 41.6122 -100.8661 78° East 526 605 33,000  Level Denver Center
01:46PM 41.6406 -100.6822 78° East 526 605 33,000  Level Denver Center
01:47PM 41.6753 -100.4697 78° East 523 602 33,000  Level Denver Center
01:49PM 41.7031 -100.2861 78° East 524 603 33,000  Level Denver Center
01:50PM 41.7314 -100.1000 78° East 528 608 33,000  Level Denver Center
01:51PM 41.7633 -99.8844 79° East 529 609 33,000  Level Denver Center
01:52PM 41.7944 -99.6828 78° East 530 610 33,000  Level Denver Center
01:53PM 41.8233 -99.4878 79° East 530 610 33,000  Level Denver Center
01:54PM 41.8519 -99.2917 79° East 532 612 33,000 180 Level Denver Center
01:55PM 41.8803 -99.0967 79° East 531 611 33,400 780 Climbing Denver Center
01:55PM 41.8978 -98.9803 79° East 530 610 34,400 1,500 Climbing Minneapolis Center
01:56PM 41.9247 -98.7903 79° East 519 597 36,000 1,140 Climbing Minneapolis Center
01:57PM 41.9550 -98.5633 80° East 513 590 36,800 480 Climbing Minneapolis Center
01:58PM 41.9817 -98.3733 79° East 514 592 37,000 60 Climbing Minneapolis Center
01:59PM 42.0069 -98.1850 80° East 512 589 37,000  Level Minneapolis Center
02:01PM 42.0297 -98.0075 80° East 503 579 37,000  Level Minneapolis Center
02:02PM 42.0547 -97.8239 80° East 501 577 37,000  Level Minneapolis Center
02:03PM 42.0797 -97.6403 80° East 498 573 37,000  Level Minneapolis Center
02:04PM 42.1042 -97.4547 80° East 500 575 37,000  Level Minneapolis Center
02:05PM 42.1317 -97.2336 80° East 499 574 37,000  Level Minneapolis Center
02:06PM 42.1553 -97.0506 80° East 497 572 37,000  Level Minneapolis Center
02:07PM 42.1772 -96.8664 81° East 496 571 37,000  Level Minneapolis Center
02:08PM 42.1997 -96.6833 81° East 495 570 37,000  Level Minneapolis Center
02:09PM 42.2164 -96.5372 81° East 492 566 37,000  Level Minneapolis Center
02:10PM 42.2436 -96.3183 80° East 492 566 37,000  Level Minneapolis Center
02:11PM 42.2644 -96.1347 81° East 492 566 37,000  Level Minneapolis Center
02:12PM 42.2842 -95.9519 82° East 491 565 37,000  Level Minneapolis Center
02:13PM 42.3044 -95.7686 81° East 491 565 37,000  Level Minneapolis Center
02:14PM 42.3294 -95.5506 81° East 490 564 37,000  Level Minneapolis Center
02:15PM 42.3492 -95.3700 82° East 487 560 37,000  Level Minneapolis Center
02:16PM 42.3678 -95.1903 82° East 484 557 37,000  Level Minneapolis Center
02:17PM 42.3908 -94.9736 82° East 483 556 37,000  Level Minneapolis Center
02:18PM 42.4100 -94.7925 82° East 485 558 37,000  Level Minneapolis Center
02:19PM 42.4286 -94.6111 82° East 486 559 37,000  Level Minneapolis Center
02:20PM 42.4456 -94.4294 83° East 485 558 37,000  Level Minneapolis Center
02:21PM 42.4628 -94.2486 83° East 485 558 37,000  Level Minneapolis Center
02:22PM 42.4817 -94.0650 82° East 482 555 37,000  Level Minneapolis Center
02:23PM 42.5028 -93.8519 82° East 480 552 37,000  Level Minneapolis Center
02:24PM 42.5192 -93.6728 83° East 482 555 37,000  Level Minneapolis Center
02:25PM 42.5350 -93.4947 83° East 482 555 37,000  Level Minneapolis Center
02:26PM 42.5522 -93.3197 82° East 475 547 37,000  Level Minneapolis Center
02:27PM 42.5675 -93.1425 83° East 476 548 37,000  Level Minneapolis Center
02:28PM 42.5842 -92.9672 83° East 475 547 37,000  Level Minneapolis Center
02:30PM 42.6019 -92.7556 83° East 475 547 37,000  Level Minneapolis Center
02:31PM 42.6172 -92.5781 83° East 476 548 37,000  Level Minneapolis Center
02:32PM 42.6325 -92.4028 83° East 475 547 37,000  Level Minneapolis Center
02:33PM 42.6464 -92.2278 84° East 472 543 37,000  Level Minneapolis Center
02:34PM 42.6606 -92.0544 84° East 469 540 37,000  Level Minneapolis Center
02:35PM 42.6764 -91.8469 84° East 467 537 37,000  Level Minneapolis Center
02:36PM 42.6911 -91.6453 84° East 469 540 37,000  Level Minneapolis Center
02:37PM 42.7025 -91.4725 85° East 470 541 37,000  Level Minneapolis Center
02:37PM 42.7119 -91.3731 83° East 470 541 37,000  Level Chicago Center
02:39PM 42.7233 -91.2008 85° East 467 537 37,000  Level Chicago Center
02:40PM 42.7392 -90.9939 84° East 465 535 37,000  Level Chicago Center
02:41PM 42.7497 -90.8222 85° East 461 531 37,000  Level Chicago Center
02:42PM 42.7619 -90.6508 84° East 460 529 37,000  Level Chicago Center
02:43PM 42.7728 -90.4783 85° East 461 531 37,000  Level Chicago Center
02:44PM 42.7844 -90.3075 85° East 459 528 37,000  Level Chicago Center
02:45PM 42.7978 -90.1008 85° East 460 529 37,000  Level Chicago Center
02:46PM 42.8069 -89.9297 86° East 458 527 37,000  Level Chicago Center
02:47PM 42.8172 -89.7644 85° East 456 525 37,000  Level Chicago Center
02:48PM 42.8286 -89.5606 86° East 460 529 37,000  Level Chicago Center
02:49PM 42.8389 -89.3881 85° East 457 526 37,000  Level Chicago Center
02:50PM 42.8481 -89.2142 86° East 459 528 37,000  Level Chicago Center
02:51PM 42.8572 -89.0411 86° East 459 528 37,000  Level Chicago Center
02:52PM 42.8664 -88.8681 86° East 460 529 37,000  Level Chicago Center
02:53PM 42.8764 -88.6644 86° East 462 532 37,000  Level Chicago Center
02:54PM 42.8847 -88.4911 86° East 461 531 37,000  Level Chicago Center
02:55PM 42.8939 -88.3175 86° East 463 533 37,000  Level Chicago Center
02:56PM 42.9022 -88.1439 86° East 462 532 37,000  Level Chicago Center
02:57PM 42.9114 -87.9408 86° East 463 533 37,000  Level Chicago Center
02:58PM 42.9169 -87.7675 87° East 460 529 37,000  Level Chicago Center
02:59PM 42.9239 -87.5944 87° East 459 528 37,000  Level Chicago Center
03:00PM 42.9319 -87.4203 86° East 462 532 37,000  Level Chicago Center
03:01PM 42.9400 -87.2317 87° East 458 527 37,000  Level Chicago Center
03:02PM 42.9456 -87.0572 87° East 461 531 37,000  Level Chicago Center
03:03PM 42.9519 -86.8847 87° East 458 527 37,000  Level Chicago Center
03:04PM 42.9578 -86.7106 87° East 461 531 37,000  Level Chicago Center
03:05PM 42.9631 -86.5369 88° East 460 529 37,000  Level Chicago Center
03:06PM 42.9689 -86.3300 88° East 458 527 37,000  Level Chicago Center
03:07PM 42.9731 -86.1589 88° East 456 525 37,000  Level Chicago Center
03:09PM 42.9783 -85.9764 88° East 457 526 37,000  Level Chicago Center
03:10PM 42.9822 -85.7881 88° East 459 528 37,000  Level Chicago Center
03:11PM 42.9872 -85.6181 88° East 455 524 37,000  Level Chicago Center
03:12PM 42.9911 -85.4478 88° East 453 521 37,000  Level Chicago Center
03:13PM 42.9950 -85.2783 88° East 449 517 37,000  Level Chicago Center
03:14PM 42.9975 -85.1092 89° East 448 516 37,000  Level Chicago Center
03:15PM 43.0017 -84.9392 88° East 448 516 37,000  Level Chicago Center
03:16PM 43.0058 -84.7367 88° East 447 514 37,000  Level Chicago Center
03:17PM 43.0072 -84.5672 89° East 447 514 37,000  Level Chicago Center
03:18PM 43.0097 -84.3983 89° East 446 513 37,000  Level Chicago Center
03:18PM 43.0094 -84.2800 90° East 438 504 37,000  Level Cleveland Center
03:19PM 43.0097 -84.1439 90° East 438 504 37,000  Level Cleveland Center
03:20PM 43.0111 -83.9594 89° East 438 504 37,000  Level Cleveland Center
03:21PM 43.0117 -83.7889 90° East 438 504 37,000  Level Cleveland Center
03:22PM 43.0122 -83.6186 90° East 438 504 37,000  Level Cleveland Center
03:23PM 43.0144 -83.4483 89° East 438 504 37,000  Level Cleveland Center
03:24PM 43.0142 -83.2808 90° East 438 504 37,000  Level Cleveland Center
03:25PM 43.0142 -83.1075 90° East 438 504 37,000  Level Cleveland Center
03:26PM 43.0133 -82.9400 90° East 443 510 37,000  Level Cleveland Center
03:27PM 43.0128 -82.7667 90° East 438 504 37,000  Level Cleveland Center
03:28PM 43.0117 -82.5933 90° East 438 504 37,000  Level Cleveland Center
03:29PM 43.0125 -82.4231 90° East 438 504 37,000  Level Cleveland Center
03:31PM 43.0000 -82.2167 95° East 450 518 37,000  Level Toronto Center
03:32PM 42.9833 -82.0333 97° East 450 518 37,000  Level Toronto Center
03:33PM 43.0000 -81.8667 82° East 450 518 37,000  Level Toronto Center
03:34PM 43.0000 -81.6833 90° East 450 518 37,000  Level Toronto Center
03:35PM 42.9833 -81.5167 98° East 450 518 37,000  Level Toronto Center
03:36PM 42.9833 -81.3500 90° East 450 518 37,000  Level Toronto Center
03:37PM 42.9833 -81.1667 90° East 450 518 37,000  Level Toronto Center
03:38PM 42.9833 -81.0000 90° East 450 518 37,000  Level Toronto Center
03:39PM 42.9667 -80.8167 97° East 450 518 37,000  Level Toronto Center
03:40PM 42.9833 -80.6667 81° East 450 518 37,000  Level Toronto Center
03:41PM 42.9833 -80.4833 90° East 450 518 37,000  Level Toronto Center
03:42PM 42.9667 -80.3167 98° East 460 529 37,000  Level Toronto Center
03:43PM 42.9667 -80.1333 90° East 450 518 37,000  Level Toronto Center
03:44PM 42.9667 -79.9667 90° East 450 518 37,000  Level Toronto Center
03:45PM 42.9500 -79.8000 98° East 450 518 37,000  Level Toronto Center
03:46PM 42.9500 -79.6167 90° East 450 518 37,000  Level Toronto Center
03:47PM 42.9500 -79.4500 90° East 450 518 37,000  Level Toronto Center
03:48PM 42.9500 -79.2833 90° East 450 518 37,000  Level Toronto Center
03:49PM 42.9333 -79.1167 98° East 450 518 37,000  Level Toronto Center
03:50PM 42.9333 -78.9500 90° East 450 518 37,000  Level Toronto Center
03:51PM 42.9333 -78.7667 90° East 440 506 37,000  Level Toronto Center
03:51PM 42.9333 -78.7514 90° East 445 512 37,000  Level Cleveland Center
03:52PM 42.9264 -78.5842 93° East 440 506 37,000  Level Cleveland Center
03:53PM 42.9233 -78.4169 91° East 440 506 37,000  Level Cleveland Center
03:54PM 42.9181 -78.2500 92° East 440 506 37,000  Level Cleveland Center
03:55PM 42.9147 -78.0856 92° East 440 506 37,000  Level Cleveland Center
03:56PM 42.9131 -77.9183 91° East 440 506 37,000  Level Cleveland Center
03:57PM 42.9094 -77.7711 92° East 440 506 37,000  Level Cleveland Center
03:59PM 42.9044 -77.5094 91° East 464 534 37,000  Level Boston Center
04:00PM 42.8983 -77.3133 92° East 446 513 37,000  Level Boston Center
04:01PM 42.8928 -77.1511 93° East 435 501 37,000  Level Boston Center
04:02PM 42.8892 -76.9836 92° East 435 501 37,000  Level Boston Center
04:03PM 42.8831 -76.8214 93° East 430 495 37,000  Level Boston Center
04:04PM 42.8786 -76.6597 92° East 430 495 37,000 -60 Level Boston Center
04:05PM 42.8736 -76.5119 93° East 430 495 36,900 -60 Descending Boston Center
04:06PM 42.8647 -76.3497 94° East 430 495 36,900  Level Boston Center
04:07PM 42.8556 -76.1875 94° East 430 495 37,000  Climbing Boston Center
04:08PM 42.8461 -76.0256 94° East 425 489 37,000 -60 Level Boston Center
04:09PM 42.8367 -75.8636 94° East 425 489 36,900 -60 Descending Boston Center
04:10PM 42.8269 -75.6958 94° East 430 495 36,900  Level Boston Center
04:11PM 42.8156 -75.5000 94° East 430 495 36,900  Level Boston Center
04:12PM 42.8033 -75.3381 96° East 425 489 37,000  Climbing Boston Center
04:13PM 42.7928 -75.1761 95° East 425 489 36,900  Descending Boston Center
04:14PM 42.7817 -75.0172 95° East 425 489 37,000  Climbing Boston Center
04:15PM 42.7708 -74.8528 95° East 425 489 37,000 -60 Level Boston Center
04:16PM 42.7594 -74.6911 95° East 425 489 36,900 -60 Descending Boston Center
04:17PM 42.7500 -74.5325 95° East 425 489 36,900  Level Boston Center
04:18PM 42.7383 -74.3708 96° East 425 489 36,900  Level Boston Center
04:19PM 42.7244 -74.1922 96° East 425 489 37,000  Climbing Boston Center
04:20PM 42.7144 -74.0367 95° East 425 489 37,000 -60 Level Boston Center
04:21PM 42.6997 -73.8781 97° East 425 489 36,900  Descending Boston Center
04:22PM 42.6931 -73.7508 94° East 425 489 37,000  Climbing Boston Center
04:23PM 42.6803 -73.5642 95° East 418 481 37,000  Level Boston Center
04:24PM 42.6672 -73.4058 96° East 418 481 37,000  Level Boston Center
04:25PM 42.6558 -73.2503 96° East 418 481 37,000 -600 Level Boston Center
04:26PM 42.6425 -73.0864 96° East 424 488 35,800 -1,200 Descending Boston Center
04:27PM 42.6225 -72.8803 97° East 445 512 34,400 -1,260 Descending Boston Center
04:28PM 42.6083 -72.7194 97° East 445 512 33,300 -1,560 Descending Boston Center
04:29PM 42.5942 -72.5586 97° East 439 505 31,300 -2,520 Descending Boston Center
04:30PM 42.5797 -72.3922 97° East 446 513 28,300 -3,180 Descending Boston Center
04:31PM 42.5650 -72.2314 97° East 439 505 25,000 -3,720 Descending Boston Center
04:32PM 42.5500 -72.0794 98° East 427 491 20,900 -3,600 Descending Boston Center
04:33PM 42.5369 -71.9442 97° East 404 465 17,800 -3,480 Descending Boston Center
04:34PM 42.5236 -71.7894 97° East 383 441 14,000 -3,120 Descending Boston Center
04:35PM 42.5103 -71.6683 98° East 367 422 11,600 -2,100 Descending Boston Center
04:36PM 42.5000 -71.5833 99° East 355 409 10,800 -1,140 Descending KA90
04:37PM 42.4833 -71.4500 100° East 325 374 9,900 -720 Descending KA90
04:38PM 42.4833 -71.3500 90° East 287 330 9,400 -600 Descending KA90
04:39PM 42.4667 -71.2333 101° East 247 284 8,700 -780 Descending KA90
04:40PM 42.4667 -71.1500 90° East 232 267 7,800 -900 Descending KA90
04:41PM 42.4500 -71.0833 109° East 223 257 7,000 -480 Descending KA90
04:42PM 42.4333 -71.0167 109° East 223 257 7,000 -300 Level KA90
04:43PM 42.3667 -70.9667 151° Southeast 232 267 6,500 -540 Descending KA90
04:44PM 42.3167 -70.9333 154° Southeast 232 267 6,000 -300 Descending KA90
04:45PM 42.2500 -70.9667 200° South 240 276 6,000  Level KA90
04:46PM 42.1833 -70.9833 190° South 240 276 6,000 -180 Level KA90
04:47PM 42.1167 -71.0167 200° South 241 277 5,700 -660 Descending KA90
04:48PM 42.1000 -71.0833 251° West 231 266 4,700 -840 Descending KA90
04:49PM 42.1667 -71.1000 350° North 212 244 4,100 -600 Descending KA90